OHTID EFNU-EFHV

Flight info

Callsign OHTID
Flight time N/A
Altitude 3000
Route DCT
Aircraft DA62/L-SDE3/S

Departure

Time 2026-04-14 13:35
Airport Nummela Airfield (EFNU)

Arrival

Time N/A
Airport Hyvinkää Airfield (EFHV)
Time Latitude Longitude Altitude Speed Heading
2026-04-14 13:32 60.33540 24.30133 370 ft 0 kts 142°
2026-04-14 13:33 60.33537 24.30154 370 ft 0 kts 129°
2026-04-14 13:33 60.33537 24.30153 370 ft 0 kts 130°
2026-04-14 13:33 60.33485 24.29785 373 ft 0 kts 128°
2026-04-14 13:34 60.33484 24.29786 373 ft 1 kts 119°
2026-04-14 13:34 60.33505 24.29780 372 ft 13 kts 290°
2026-04-14 13:34 60.33504 24.29609 368 ft 24 kts 211°
2026-04-14 13:35 60.33195 24.29119 373 ft 82 kts 216°
2026-04-14 13:35 60.32749 24.28371 650 ft 85 kts 212°
2026-04-14 13:35 60.32242 24.27528 919 ft 94 kts 211°
2026-04-14 13:35 60.31787 24.26699 1394 ft 85 kts 212°
2026-04-14 13:36 60.31286 24.26270 1786 ft 75 kts 160°
2026-04-14 13:36 60.30794 24.26681 2102 ft 78 kts 138°
2026-04-14 13:36 60.30477 24.27561 2446 ft 78 kts 111°
2026-04-14 13:36 60.30442 24.28638 2928 ft 77 kts 82°
2026-04-14 13:37 60.30748 24.29768 2997 ft 118 kts 47°
2026-04-14 13:37 60.31478 24.30893 2999 ft 145 kts 41°
2026-04-14 13:37 60.32237 24.32117 3008 ft 159 kts 43°
2026-04-14 13:37 60.33126 24.33570 3017 ft 169 kts 43°
2026-04-14 13:38 60.33977 24.35003 2982 ft 148 kts 46°
2026-04-14 13:38 60.34695 24.36282 2859 ft 135 kts 39°
2026-04-14 13:38 60.35572 24.37117 2681 ft 135 kts 24°
2026-04-14 13:38 60.36443 24.37798 2543 ft 135 kts 27°
2026-04-14 13:39 60.37289 24.38545 2431 ft 130 kts 32°
2026-04-14 13:39 60.38099 24.39384 2287 ft 125 kts 35°
2026-04-14 13:39 60.38898 24.40149 2040 ft 130 kts 25°
2026-04-14 13:39 60.39738 24.40685 2002 ft 121 kts 13°